sensor_id;sensor_type;location;lat;lon;timestamp;temperature;humidity
39695;DHT22;25367;-35.352;149.036;2022-10-22T09:25:01;22.70;64.70
39695;DHT22;25367;-35.352;149.036;2022-10-22T09:27:37;21.90;67.70
39695;DHT22;25367;-35.352;149.036;2022-10-22T09:30:09;21.70;68.60
39695;DHT22;25367;-35.352;149.036;2022-10-22T09:32:41;21.80;68.60
39695;DHT22;25367;-35.352;149.036;2022-10-22T09:35:11;22.00;68.10
39695;DHT22;25367;-35.352;149.036;2022-10-22T09:37:48;22.20;66.90
39695;DHT22;25367;-35.352;149.036;2022-10-22T09:40:20;22.50;65.90
39695;DHT22;25367;-35.352;149.036;2022-10-22T09:42:49;22.80;65.20
39695;DHT22;25367;-35.352;149.036;2022-10-22T09:45:20;23.00;64.10
39695;DHT22;25367;-35.352;149.036;2022-10-22T09:48:06;23.20;63.20
39695;DHT22;25367;-35.352;149.036;2022-10-22T09:50:42;24.20;59.00
39695;DHT22;25367;-35.352;149.036;2022-10-22T09:53:18;23.90;60.20
39695;DHT22;25367;-35.352;149.036;2022-10-22T09:55:57;24.10;59.80
39695;DHT22;25367;-35.352;149.036;2022-10-22T09:58:27;25.20;56.50
39695;DHT22;25367;-35.352;149.036;2022-10-22T10:00:58;25.50;55.40
39695;DHT22;25367;-35.352;149.036;2022-10-22T10:03:30;25.80;54.60
39695;DHT22;25367;-35.352;149.036;2022-10-22T10:06:00;25.80;54.30
39695;DHT22;25367;-35.352;149.036;2022-10-22T10:08:29;25.90;54.00
39695;DHT22;25367;-35.352;149.036;2022-10-22T10:11:05;26.10;53.60
39695;DHT22;25367;-35.352;149.036;2022-10-22T10:13:45;26.10;53.30
39695;DHT22;25367;-35.352;149.036;2022-10-22T10:16:31;26.20;53.10
39695;DHT22;25367;-35.352;149.036;2022-10-22T10:19:25;26.30;52.70
39695;DHT22;25367;-35.352;149.036;2022-10-22T10:22:01;26.40;52.40
39695;DHT22;25367;-35.352;149.036;2022-10-22T10:24:41;26.40;52.40
39695;DHT22;25367;-35.352;149.036;2022-10-22T10:27:21;26.40;52.30
39695;DHT22;25367;-35.352;149.036;2022-10-22T10:30:00;26.50;52.20
39695;DHT22;25367;-35.352;149.036;2022-10-22T10:33:04;26.50;52.10
39695;DHT22;25367;-35.352;149.036;2022-10-22T10:35:45;26.50;52.00
39695;DHT22;25367;-35.352;149.036;2022-10-22T10:41:20;26.60;52.20
39695;DHT22;25367;-35.352;149.036;2022-10-22T10:44:18;26.70;51.50
39695;DHT22;25367;-35.352;149.036;2022-10-22T10:46:58;26.70;51.30
39695;DHT22;25367;-35.352;149.036;2022-10-22T10:49:33;26.80;51.10
39695;DHT22;25367;-35.352;149.036;2022-10-22T10:52:10;26.70;51.30
39695;DHT22;25367;-35.352;149.036;2022-10-22T10:54:46;26.70;51.10
39695;DHT22;25367;-35.352;149.036;2022-10-22T10:57:29;26.70;51.00
39695;DHT22;25367;-35.352;149.036;2022-10-22T11:00:10;26.70;51.10
39695;DHT22;25367;-35.352;149.036;2022-10-22T11:03:24;26.70;51.10
39695;DHT22;25367;-35.352;149.036;2022-10-22T11:05:58;26.70;50.90
39695;DHT22;25367;-35.352;149.036;2022-10-22T11:08:31;26.70;50.90
39695;DHT22;25367;-35.352;149.036;2022-10-22T11:11:05;26.80;50.80
39695;DHT22;25367;-35.352;149.036;2022-10-22T11:13:37;26.70;50.80
39695;DHT22;25367;-35.352;149.036;2022-10-22T11:16:15;26.80;50.70
39695;DHT22;25367;-35.352;149.036;2022-10-22T11:18:50;27.00;50.50
39695;DHT22;25367;-35.352;149.036;2022-10-22T11:21:26;26.90;50.40
39695;DHT22;25367;-35.352;149.036;2022-10-22T11:24:03;26.90;50.40
39695;DHT22;25367;-35.352;149.036;2022-10-22T11:26:43;26.90;50.40
39695;DHT22;25367;-35.352;149.036;2022-10-22T11:29:18;26.90;50.50
39695;DHT22;25367;-35.352;149.036;2022-10-22T11:31:55;26.90;50.40
39695;DHT22;25367;-35.352;149.036;2022-10-22T11:34:32;26.90;50.50
39695;DHT22;25367;-35.352;149.036;2022-10-22T11:37:03;27.00;50.20
39695;DHT22;25367;-35.352;149.036;2022-10-22T11:39:38;27.00;50.10
39695;DHT22;25367;-35.352;149.036;2022-10-22T11:42:11;27.00;50.10
39695;DHT22;25367;-35.352;149.036;2022-10-22T11:44:48;27.10;49.80
39695;DHT22;25367;-35.352;149.036;2022-10-22T11:47:24;27.10;49.90
39695;DHT22;25367;-35.352;149.036;2022-10-22T11:50:01;27.10;49.80
39695;DHT22;25367;-35.352;149.036;2022-10-22T11:52:48;27.10;49.70
39695;DHT22;25367;-35.352;149.036;2022-10-22T11:55:44;27.00;50.10
39695;DHT22;25367;-35.352;149.036;2022-10-22T11:58:38;26.90;50.30
39695;DHT22;25367;-35.352;149.036;2022-10-22T12:01:28;26.90;50.40
39695;DHT22;25367;-35.352;149.036;2022-10-22T12:04:19;26.70;50.50
39695;DHT22;25367;-35.352;149.036;2022-10-22T12:06:57;26.70;50.70
39695;DHT22;25367;-35.352;149.036;2022-10-22T12:09:29;26.70;50.80
39695;DHT22;25367;-35.352;149.036;2022-10-22T12:12:13;26.70;50.90
39695;DHT22;25367;-35.352;149.036;2022-10-22T12:14:54;26.70;50.80
39695;DHT22;25367;-35.352;149.036;2022-10-22T12:17:26;26.70;50.90
39695;DHT22;25367;-35.352;149.036;2022-10-22T12:20:00;26.60;51.00
39695;DHT22;25367;-35.352;149.036;2022-10-22T12:22:31;26.70;50.90
39695;DHT22;25367;-35.352;149.036;2022-10-22T12:25:05;26.70;50.90
39695;DHT22;25367;-35.352;149.036;2022-10-22T12:27:38;26.70;50.90
39695;DHT22;25367;-35.352;149.036;2022-10-22T12:30:18;26.70;50.70
39695;DHT22;25367;-35.352;149.036;2022-10-22T12:32:50;26.70;50.80
39695;DHT22;25367;-35.352;149.036;2022-10-22T12:35:23;26.60;50.90
39695;DHT22;25367;-35.352;149.036;2022-10-22T12:37:55;26.70;50.80
39695;DHT22;25367;-35.352;149.036;2022-10-22T12:40:26;26.80;50.80
39695;DHT22;25367;-35.352;149.036;2022-10-22T12:42:56;26.70;50.90
39695;DHT22;25367;-35.352;149.036;2022-10-22T12:45:27;26.70;50.90
39695;DHT22;25367;-35.352;149.036;2022-10-22T12:47:59;26.70;50.70
39695;DHT22;25367;-35.352;149.036;2022-10-22T12:50:33;26.70;50.80
39695;DHT22;25367;-35.352;149.036;2022-10-22T12:53:04;26.70;50.90
39695;DHT22;25367;-35.352;149.036;2022-10-22T12:55:34;26.70;51.00
39695;DHT22;25367;-35.352;149.036;2022-10-22T12:58:05;26.60;51.10
39695;DHT22;25367;-35.352;149.036;2022-10-22T13:00:35;26.50;51.20
39695;DHT22;25367;-35.352;149.036;2022-10-22T13:03:06;26.50;51.30
39695;DHT22;25367;-35.352;149.036;2022-10-22T13:05:37;26.50;51.80
39695;DHT22;25367;-35.352;149.036;2022-10-22T13:08:10;26.60;51.20
39695;DHT22;25367;-35.352;149.036;2022-10-22T13:10:47;26.60;51.10
39695;DHT22;25367;-35.352;149.036;2022-10-22T13:13:31;26.70;51.00
39695;DHT22;25367;-35.352;149.036;2022-10-22T13:16:19;26.80;50.30
39695;DHT22;25367;-35.352;149.036;2022-10-22T13:18:49;26.80;50.20
39695;DHT22;25367;-35.352;149.036;2022-10-22T13:21:32;26.70;50.30
39695;DHT22;25367;-35.352;149.036;2022-10-22T13:24:17;26.70;50.30
39695;DHT22;25367;-35.352;149.036;2022-10-22T13:26:49;26.70;50.30
39695;DHT22;25367;-35.352;149.036;2022-10-22T13:29:20;26.70;50.50
39695;DHT22;25367;-35.352;149.036;2022-10-22T13:31:52;26.70;50.60
39695;DHT22;25367;-35.352;149.036;2022-10-22T13:34:22;26.60;50.70
39695;DHT22;25367;-35.352;149.036;2022-10-22T13:36:54;26.70;50.70
39695;DHT22;25367;-35.352;149.036;2022-10-22T13:39:24;26.60;50.60
39695;DHT22;25367;-35.352;149.036;2022-10-22T13:41:53;26.70;50.60
39695;DHT22;25367;-35.352;149.036;2022-10-22T13:44:22;26.70;50.60
39695;DHT22;25367;-35.352;149.036;2022-10-22T13:46:52;26.80;50.40
39695;DHT22;25367;-35.352;149.036;2022-10-22T13:49:22;26.80;50.40
39695;DHT22;25367;-35.352;149.036;2022-10-22T13:51:53;26.60;50.60
39695;DHT22;25367;-35.352;149.036;2022-10-22T13:54:24;26.70;50.60
39695;DHT22;25367;-35.352;149.036;2022-10-22T13:56:53;26.70;50.60
39695;DHT22;25367;-35.352;149.036;2022-10-22T13:59:22;26.60;50.70
39695;DHT22;25367;-35.352;149.036;2022-10-22T14:01:52;26.70;50.80
39695;DHT22;25367;-35.352;149.036;2022-10-22T14:04:21;26.60;50.90
39695;DHT22;25367;-35.352;149.036;2022-10-22T14:06:53;26.60;50.80
39695;DHT22;25367;-35.352;149.036;2022-10-22T14:09:22;26.60;50.90
39695;DHT22;25367;-35.352;149.036;2022-10-22T14:11:51;26.70;50.70
39695;DHT22;25367;-35.352;149.036;2022-10-22T14:14:21;26.70;50.70
39695;DHT22;25367;-35.352;149.036;2022-10-22T14:16:50;26.70;50.50
39695;DHT22;25367;-35.352;149.036;2022-10-22T14:19:19;26.80;50.50
39695;DHT22;25367;-35.352;149.036;2022-10-22T14:21:49;26.80;50.60
39695;DHT22;25367;-35.352;149.036;2022-10-22T14:24:20;26.80;51.20
39695;DHT22;25367;-35.352;149.036;2022-10-22T14:26:50;26.80;50.60
39695;DHT22;25367;-35.352;149.036;2022-10-22T14:29:19;26.70;50.80
39695;DHT22;25367;-35.352;149.036;2022-10-22T14:31:48;26.60;50.90
39695;DHT22;25367;-35.352;149.036;2022-10-22T14:34:17;26.60;50.90
39695;DHT22;25367;-35.352;149.036;2022-10-22T14:36:49;26.70;50.80
39695;DHT22;25367;-35.352;149.036;2022-10-22T14:39:20;26.60;50.90
39695;DHT22;25367;-35.352;149.036;2022-10-22T14:41:50;26.70;50.90
39695;DHT22;25367;-35.352;149.036;2022-10-22T14:44:19;26.70;50.80
39695;DHT22;25367;-35.352;149.036;2022-10-22T14:46:49;26.80;50.60
39695;DHT22;25367;-35.352;149.036;2022-10-22T14:49:18;26.80;50.60
39695;DHT22;25367;-35.352;149.036;2022-10-22T14:51:48;26.80;50.70
39695;DHT22;25367;-35.352;149.036;2022-10-22T14:54:19;26.90;50.60
39695;DHT22;25367;-35.352;149.036;2022-10-22T14:56:48;26.80;50.70
39695;DHT22;25367;-35.352;149.036;2022-10-22T14:59:18;26.80;50.90
39695;DHT22;25367;-35.352;149.036;2022-10-22T15:01:47;26.70;50.90
39695;DHT22;25367;-35.352;149.036;2022-10-22T15:04:17;26.70;51.00
39695;DHT22;25367;-35.352;149.036;2022-10-22T15:06:46;26.70;51.00
39695;DHT22;25367;-35.352;149.036;2022-10-22T15:09:16;26.70;50.90
39695;DHT22;25367;-35.352;149.036;2022-10-22T15:11:47;26.70;50.80
39695;DHT22;25367;-35.352;149.036;2022-10-22T15:14:16;26.80;50.70
39695;DHT22;25367;-35.352;149.036;2022-10-22T15:16:45;26.40;51.20
39695;DHT22;25367;-35.352;149.036;2022-10-22T15:19:15;26.30;52.00
39695;DHT22;25367;-35.352;149.036;2022-10-22T15:21:45;26.70;50.70
39695;DHT22;25367;-35.352;149.036;2022-10-22T15:24:14;26.50;51.50
39695;DHT22;25367;-35.352;149.036;2022-10-22T15:26:45;26.00;52.40
39695;DHT22;25367;-35.352;149.036;2022-10-22T15:29:16;26.00;52.60
39695;DHT22;25367;-35.352;149.036;2022-10-22T15:31:47;26.00;52.50
39695;DHT22;25367;-35.352;149.036;2022-10-22T15:34:21;26.60;51.50
39695;DHT22;25367;-35.352;149.036;2022-10-22T15:36:52;26.90;50.60
39695;DHT22;25367;-35.352;149.036;2022-10-22T15:39:22;27.00;50.20
39695;DHT22;25367;-35.352;149.036;2022-10-22T15:41:54;27.00;50.20
39695;DHT22;25367;-35.352;149.036;2022-10-22T15:44:25;26.90;50.60
39695;DHT22;25367;-35.352;149.036;2022-10-22T15:46:55;26.60;51.20
39695;DHT22;25367;-35.352;149.036;2022-10-22T15:49:26;26.10;52.10
39695;DHT22;25367;-35.352;149.036;2022-10-22T15:51:56;25.90;53.10
39695;DHT22;25367;-35.352;149.036;2022-10-22T15:54:27;25.00;55.00
39695;DHT22;25367;-35.352;149.036;2022-10-22T15:57:00;24.90;55.50
39695;DHT22;25367;-35.352;149.036;2022-10-22T15:59:29;24.90;56.20
39695;DHT22;25367;-35.352;149.036;2022-10-22T16:01:59;25.40;54.70
39695;DHT22;25367;-35.352;149.036;2022-10-22T16:04:28;25.80;53.40
39695;DHT22;25367;-35.352;149.036;2022-10-22T16:06:57;26.40;51.90
39695;DHT22;25367;-35.352;149.036;2022-10-22T16:09:27;26.90;50.80
39695;DHT22;25367;-35.352;149.036;2022-10-22T16:11:58;26.90;50.50
39695;DHT22;25367;-35.352;149.036;2022-10-22T16:14:28;26.60;51.10
39695;DHT22;25367;-35.352;149.036;2022-10-22T16:16:57;25.40;54.00
39695;DHT22;25367;-35.352;149.036;2022-10-22T16:19:27;25.80;53.60
39695;DHT22;25367;-35.352;149.036;2022-10-22T16:21:56;26.20;52.70
39695;DHT22;25367;-35.352;149.036;2022-10-22T16:24:26;26.20;52.40
39695;DHT22;25367;-35.352;149.036;2022-10-22T16:26:56;26.30;52.20
39695;DHT22;25367;-35.352;149.036;2022-10-22T16:29:27;26.30;52.10
39695;DHT22;25367;-35.352;149.036;2022-10-22T16:31:56;26.40;52.20
39695;DHT22;25367;-35.352;149.036;2022-10-22T16:34:27;26.30;52.10
39695;DHT22;25367;-35.352;149.036;2022-10-22T16:36:56;26.30;52.50
39695;DHT22;25367;-35.352;149.036;2022-10-22T16:39:25;26.40;52.00
39695;DHT22;25367;-35.352;149.036;2022-10-22T16:41:55;26.50;51.90
39695;DHT22;25367;-35.352;149.036;2022-10-22T16:44:26;26.50;51.70
39695;DHT22;25367;-35.352;149.036;2022-10-22T16:46:55;26.60;51.50
39695;DHT22;25367;-35.352;149.036;2022-10-22T16:49:25;26.60;51.40
39695;DHT22;25367;-35.352;149.036;2022-10-22T16:51:54;26.60;51.50
39695;DHT22;25367;-35.352;149.036;2022-10-22T16:54:24;26.60;51.40
39695;DHT22;25367;-35.352;149.036;2022-10-22T16:56:53;26.70;51.40
39695;DHT22;25367;-35.352;149.036;2022-10-22T16:59:23;26.60;51.40
39695;DHT22;25367;-35.352;149.036;2022-10-22T17:01:54;26.50;51.40
39695;DHT22;25367;-35.352;149.036;2022-10-22T17:04:23;26.60;51.40
39695;DHT22;25367;-35.352;149.036;2022-10-22T17:06:53;26.60;51.40
39695;DHT22;25367;-35.352;149.036;2022-10-22T17:09:22;26.70;51.40
39695;DHT22;25367;-35.352;149.036;2022-10-22T17:11:51;26.70;51.00
39695;DHT22;25367;-35.352;149.036;2022-10-22T17:14:21;26.80;50.90
39695;DHT22;25367;-35.352;149.036;2022-10-22T17:16:50;26.90;50.80
39695;DHT22;25367;-35.352;149.036;2022-10-22T17:19:22;26.90;50.70
39695;DHT22;25367;-35.352;149.036;2022-10-22T17:21:52;26.90;50.80
39695;DHT22;25367;-35.352;149.036;2022-10-22T17:24:21;26.80;50.90
39695;DHT22;25367;-35.352;149.036;2022-10-22T17:26:51;26.80;50.80
39695;DHT22;25367;-35.352;149.036;2022-10-22T17:29:20;26.70;50.90
39695;DHT22;25367;-35.352;149.036;2022-10-22T17:31:49;26.70;51.00
39695;DHT22;25367;-35.352;149.036;2022-10-22T17:34:21;26.80;50.90
39695;DHT22;25367;-35.352;149.036;2022-10-22T17:36:50;26.70;51.00
39695;DHT22;25367;-35.352;149.036;2022-10-22T17:39:19;26.80;50.90
39695;DHT22;25367;-35.352;149.036;2022-10-22T17:41:48;26.80;50.70
39695;DHT22;25367;-35.352;149.036;2022-10-22T17:44:18;26.90;50.60
39695;DHT22;25367;-35.352;149.036;2022-10-22T17:46:48;27.00;50.50
39695;DHT22;25367;-35.352;149.036;2022-10-22T17:49:18;27.00;50.30
39695;DHT22;25367;-35.352;149.036;2022-10-22T17:51:50;27.00;50.30
39695;DHT22;25367;-35.352;149.036;2022-10-22T17:54:19;27.00;50.30
39695;DHT22;25367;-35.352;149.036;2022-10-22T17:56:48;26.90;50.40
39695;DHT22;25367;-35.352;149.036;2022-10-22T17:59:18;26.90;50.60
39695;DHT22;25367;-35.352;149.036;2022-10-22T18:01:47;26.80;50.70
39695;DHT22;25367;-35.352;149.036;2022-10-22T18:04:17;26.90;50.70
39695;DHT22;25367;-35.352;149.036;2022-10-22T18:06:49;26.80;50.80
39695;DHT22;25367;-35.352;149.036;2022-10-22T18:09:18;26.90;50.70
39695;DHT22;25367;-35.352;149.036;2022-10-22T18:11:49;26.90;50.50
39695;DHT22;25367;-35.352;149.036;2022-10-22T18:14:19;26.90;50.40
39695;DHT22;25367;-35.352;149.036;2022-10-22T18:16:50;27.00;50.20
39695;DHT22;25367;-35.352;149.036;2022-10-22T18:19:20;27.00;50.20
39695;DHT22;25367;-35.352;149.036;2022-10-22T18:21:52;27.00;50.20
39695;DHT22;25367;-35.352;149.036;2022-10-22T18:24:22;27.00;50.40
39695;DHT22;25367;-35.352;149.036;2022-10-22T18:26:51;26.90;50.40
39695;DHT22;25367;-35.352;149.036;2022-10-22T18:29:21;26.90;50.50
39695;DHT22;25367;-35.352;149.036;2022-10-22T18:31:50;26.90;50.60
39695;DHT22;25367;-35.352;149.036;2022-10-22T18:34:20;26.80;50.50
39695;DHT22;25367;-35.352;149.036;2022-10-22T18:36:51;26.90;50.50
39695;DHT22;25367;-35.352;149.036;2022-10-22T18:39:20;26.90;50.40
39695;DHT22;25367;-35.352;149.036;2022-10-22T18:41:49;26.90;50.20
39695;DHT22;25367;-35.352;149.036;2022-10-22T18:44:19;26.90;50.20
39695;DHT22;25367;-35.352;149.036;2022-10-22T18:46:48;27.00;50.10
39695;DHT22;25367;-35.352;149.036;2022-10-22T18:49:18;27.00;50.10
39695;DHT22;25367;-35.352;149.036;2022-10-22T18:51:49;27.00;50.20
39695;DHT22;25367;-35.352;149.036;2022-10-22T18:54:19;26.90;50.20
39695;DHT22;25367;-35.352;149.036;2022-10-22T18:56:49;27.00;50.10
39695;DHT22;25367;-35.352;149.036;2022-10-22T18:59:19;26.90;50.20
39695;DHT22;25367;-35.352;149.036;2022-10-22T19:01:50;26.90;50.40
39695;DHT22;25367;-35.352;149.036;2022-10-22T19:04:19;26.80;50.90
39695;DHT22;25367;-35.352;149.036;2022-10-22T19:06:51;26.90;50.30
39695;DHT22;25367;-35.352;149.036;2022-10-22T19:09:22;26.90;50.30
39695;DHT22;25367;-35.352;149.036;2022-10-22T19:11:52;26.90;50.10
39695;DHT22;25367;-35.352;149.036;2022-10-22T19:14:22;27.00;50.10
39695;DHT22;25367;-35.352;149.036;2022-10-22T19:16:51;27.00;50.00
39695;DHT22;25367;-35.352;149.036;2022-10-22T19:19:22;27.10;49.90
39695;DHT22;25367;-35.352;149.036;2022-10-22T19:21:53;27.00;49.90
39695;DHT22;25367;-35.352;149.036;2022-10-22T19:24:22;27.00;50.00
39695;DHT22;25367;-35.352;149.036;2022-10-22T19:26:52;27.00;50.10
39695;DHT22;25367;-35.352;149.036;2022-10-22T19:29:22;26.90;50.00
39695;DHT22;25367;-35.352;149.036;2022-10-22T19:31:51;26.90;50.20
39695;DHT22;25367;-35.352;149.036;2022-10-22T19:34:20;26.90;50.30
39695;DHT22;25367;-35.352;149.036;2022-10-22T19:36:54;26.90;50.30
39695;DHT22;25367;-35.352;149.036;2022-10-22T19:39:23;26.90;50.20
39695;DHT22;25367;-35.352;149.036;2022-10-22T19:41:53;26.90;50.20
39695;DHT22;25367;-35.352;149.036;2022-10-22T19:44:22;26.90;50.00
39695;DHT22;25367;-35.352;149.036;2022-10-22T19:46:52;26.80;49.50
39695;DHT22;25367;-35.352;149.036;2022-10-22T19:49:21;26.70;49.60
39695;DHT22;25367;-35.352;149.036;2022-10-22T19:51:50;26.50;49.70
39695;DHT22;25367;-35.352;149.036;2022-10-22T19:54:21;26.60;49.80
39695;DHT22;25367;-35.352;149.036;2022-10-22T19:56:51;26.40;50.00
39695;DHT22;25367;-35.352;149.036;2022-10-22T19:59:20;26.40;50.00
39695;DHT22;25367;-35.352;149.036;2022-10-22T20:01:50;26.30;50.00
39695;DHT22;25367;-35.352;149.036;2022-10-22T20:04:19;26.30;50.10
39695;DHT22;25367;-35.352;149.036;2022-10-22T20:06:50;26.30;50.10
39695;DHT22;25367;-35.352;149.036;2022-10-22T20:09:21;26.30;50.40
39695;DHT22;25367;-35.352;149.036;2022-10-22T20:11:50;26.30;50.50
39695;DHT22;25367;-35.352;149.036;2022-10-22T20:14:20;26.20;50.40
39695;DHT22;25367;-35.352;149.036;2022-10-22T20:16:49;26.30;50.10
39695;DHT22;25367;-35.352;149.036;2022-10-22T20:19:19;26.40;50.10
39695;DHT22;25367;-35.352;149.036;2022-10-22T20:21:48;26.40;50.10
39695;DHT22;25367;-35.352;149.036;2022-10-22T20:24:17;26.30;50.30
39695;DHT22;25367;-35.352;149.036;2022-10-22T20:26:49;26.30;50.50
39695;DHT22;25367;-35.352;149.036;2022-10-22T20:29:18;26.40;50.70
39695;DHT22;25367;-35.352;149.036;2022-10-22T20:31:48;26.20;50.60
39695;DHT22;25367;-35.352;149.036;2022-10-22T20:34:17;26.20;50.50
39695;DHT22;25367;-35.352;149.036;2022-10-22T20:36:46;26.20;50.70
39695;DHT22;25367;-35.352;149.036;2022-10-22T20:39:16;26.20;50.80
39695;DHT22;25367;-35.352;149.036;2022-10-22T20:41:48;26.20;50.50
39695;DHT22;25367;-35.352;149.036;2022-10-22T20:44:17;26.20;50.50
39695;DHT22;25367;-35.352;149.036;2022-10-22T20:46:47;26.20;50.60
39695;DHT22;25367;-35.352;149.036;2022-10-22T20:49:17;26.30;50.60
39695;DHT22;25367;-35.352;149.036;2022-10-22T20:51:47;26.20;50.40
39695;DHT22;25367;-35.352;149.036;2022-10-22T20:54:17;26.30;50.40
39695;DHT22;25367;-35.352;149.036;2022-10-22T20:56:50;26.40;50.20
39695;DHT22;25367;-35.352;149.036;2022-10-22T20:59:19;26.30;50.20
39695;DHT22;25367;-35.352;149.036;2022-10-22T21:01:49;26.30;50.30
39695;DHT22;25367;-35.352;149.036;2022-10-22T21:04:20;26.30;50.30
39695;DHT22;25367;-35.352;149.036;2022-10-22T21:06:49;26.30;50.30
39695;DHT22;25367;-35.352;149.036;2022-10-22T21:09:19;26.30;50.40
39695;DHT22;25367;-35.352;149.036;2022-10-22T21:11:51;26.30;50.40
39695;DHT22;25367;-35.352;149.036;2022-10-22T21:14:21;26.30;50.20
39695;DHT22;25367;-35.352;149.036;2022-10-22T21:16:51;26.50;50.00
39695;DHT22;25367;-35.352;149.036;2022-10-22T21:19:21;26.30;50.10
39695;DHT22;25367;-35.352;149.036;2022-10-22T21:21:50;26.30;50.10
39695;DHT22;25367;-35.352;149.036;2022-10-22T21:24:19;26.30;50.20
39695;DHT22;25367;-35.352;149.036;2022-10-22T21:26:52;26.30;50.20
39695;DHT22;25367;-35.352;149.036;2022-10-22T21:29:22;26.30;50.30
39695;DHT22;25367;-35.352;149.036;2022-10-22T21:31:52;26.20;50.40
39695;DHT22;25367;-35.352;149.036;2022-10-22T21:34:21;26.20;50.60
39695;DHT22;25367;-35.352;149.036;2022-10-22T21:36:51;26.10;50.60
39695;DHT22;25367;-35.352;149.036;2022-10-22T21:39:20;26.10;50.60
39695;DHT22;25367;-35.352;149.036;2022-10-22T21:41:52;26.20;50.60
39695;DHT22;25367;-35.352;149.036;2022-10-22T21:44:22;26.20;50.40
39695;DHT22;25367;-35.352;149.036;2022-10-22T21:46:51;26.30;50.20
39695;DHT22;25367;-35.352;149.036;2022-10-22T21:49:20;26.30;50.10
39695;DHT22;25367;-35.352;149.036;2022-10-22T21:51:49;26.30;50.20
39695;DHT22;25367;-35.352;149.036;2022-10-22T21:54:19;26.30;50.10
39695;DHT22;25367;-35.352;149.036;2022-10-22T21:56:51;26.30;50.20
39695;DHT22;25367;-35.352;149.036;2022-10-22T21:59:20;26.10;50.40
39695;DHT22;25367;-35.352;149.036;2022-10-22T22:01:50;26.10;50.50
39695;DHT22;25367;-35.352;149.036;2022-10-22T22:04:19;26.10;50.60
39695;DHT22;25367;-35.352;149.036;2022-10-22T22:06:49;26.10;50.50
39695;DHT22;25367;-35.352;149.036;2022-10-22T22:09:18;26.20;50.30
39695;DHT22;25367;-35.352;149.036;2022-10-22T22:11:49;26.20;50.20
39695;DHT22;25367;-35.352;149.036;2022-10-22T22:14:19;26.30;50.10
39695;DHT22;25367;-35.352;149.036;2022-10-22T22:16:48;26.30;50.00
39695;DHT22;25367;-35.352;149.036;2022-10-22T22:19:17;26.30;49.90
39695;DHT22;25367;-35.352;149.036;2022-10-22T22:21:47;26.30;50.00
39695;DHT22;25367;-35.352;149.036;2022-10-22T22:24:16;26.20;50.00
39695;DHT22;25367;-35.352;149.036;2022-10-22T22:26:46;26.30;50.10
39695;DHT22;25367;-35.352;149.036;2022-10-22T22:29:17;26.30;50.20
39695;DHT22;25367;-35.352;149.036;2022-10-22T22:31:47;26.30;50.10
39695;DHT22;25367;-35.352;149.036;2022-10-22T22:34:17;26.20;50.10
39695;DHT22;25367;-35.352;149.036;2022-10-22T22:36:47;26.30;50.00
39695;DHT22;25367;-35.352;149.036;2022-10-22T22:39:17;26.30;49.90
39695;DHT22;25367;-35.352;149.036;2022-10-22T22:41:47;26.40;49.90
39695;DHT22;25367;-35.352;149.036;2022-10-22T22:44:18;26.40;49.80
39695;DHT22;25367;-35.352;149.036;2022-10-22T22:46:48;26.40;49.60
39695;DHT22;25367;-35.352;149.036;2022-10-22T22:49:17;26.50;49.50
39695;DHT22;25367;-35.352;149.036;2022-10-22T22:51:46;26.40;49.60
39695;DHT22;25367;-35.352;149.036;2022-10-22T22:54:16;26.40;49.60
39695;DHT22;25367;-35.352;149.036;2022-10-22T22:56:47;26.40;49.60
39695;DHT22;25367;-35.352;149.036;2022-10-22T22:59:20;26.40;49.70
39695;DHT22;25367;-35.352;149.036;2022-10-22T23:01:50;26.40;49.60
39695;DHT22;25367;-35.352;149.036;2022-10-22T23:04:19;26.30;49.70
39695;DHT22;25367;-35.352;149.036;2022-10-22T23:06:49;26.40;49.70
39695;DHT22;25367;-35.352;149.036;2022-10-22T23:09:19;26.40;49.60
39695;DHT22;25367;-35.352;149.036;2022-10-22T23:11:52;26.40;49.50
39695;DHT22;25367;-35.352;149.036;2022-10-22T23:14:23;26.50;49.40
39695;DHT22;25367;-35.352;149.036;2022-10-22T23:16:53;26.50;49.30
39695;DHT22;25367;-35.352;149.036;2022-10-22T23:19:22;26.60;49.20
39695;DHT22;25367;-35.352;149.036;2022-10-22T23:21:53;26.50;49.30
39695;DHT22;25367;-35.352;149.036;2022-10-22T23:24:25;26.50;49.30
39695;DHT22;25367;-35.352;149.036;2022-10-22T23:26:55;26.50;49.40
39695;DHT22;25367;-35.352;149.036;2022-10-22T23:29:32;26.40;49.70
39695;DHT22;25367;-35.352;149.036;2022-10-22T23:32:03;26.40;49.70
39695;DHT22;25367;-35.352;149.036;2022-10-22T23:34:33;26.40;49.90
39695;DHT22;25367;-35.352;149.036;2022-10-22T23:37:02;26.40;49.90
39695;DHT22;25367;-35.352;149.036;2022-10-22T23:39:32;26.30;50.00
39695;DHT22;25367;-35.352;149.036;2022-10-22T23:42:01;26.40;50.00
39695;DHT22;25367;-35.352;149.036;2022-10-22T23:44:33;26.40;50.00
39695;DHT22;25367;-35.352;149.036;2022-10-22T23:47:02;26.50;49.90
39695;DHT22;25367;-35.352;149.036;2022-10-22T23:49:31;26.50;49.70
39695;DHT22;25367;-35.352;149.036;2022-10-22T23:52:01;26.50;49.70
39695;DHT22;25367;-35.352;149.036;2022-10-22T23:54:30;26.70;49.60
39695;DHT22;25367;-35.352;149.036;2022-10-22T23:57:00;26.60;49.60
39695;DHT22;25367;-35.352;149.036;2022-10-22T23:59:31;26.50;49.70
